Time;durP1;ratioP1;P1;durP2;ratioP2;P2;SDS_P1;SDS_P2;PMS_P1;PMS_P2;Temp;Humidity;BMP_temperature;BMP_pressure;BME280_temperature;BME280_humidity;BME280_pressure;Samples;Min_cycle;Max_cycle;Signal;HPM_P1;HPM_P2
2023/09/14 00:01:24;;;;;;;13.25;8.00;;;;;;;17.01;100.00;94921.22;4988723;28;20026;-88
2023/09/14 00:03:51;;;;;;;11.70;8.73;;;;;;;17.16;100.00;94913.88;4987579;28;20468;-89
2023/09/14 00:06:16;;;;;;;15.77;8.48;;;;;;;17.25;100.00;94909.19;4988004;28;20081;-90
2023/09/14 00:08:42;;;;;;;17.25;9.80;;;;;;;17.08;100.00;94911.50;4987791;28;20145;-93
2023/09/14 00:11:07;;;;;;;16.45;10.07;;;;;;;17.32;100.00;94913.34;4988211;28;20035;-89
2023/09/14 00:13:33;;;;;;;15.45;9.95;;;;;;;17.07;100.00;94911.72;4988138;28;20034;-96
2023/09/14 00:15:58;;;;;;;29.13;12.57;;;;;;;17.08;100.00;94916.72;4970995;28;20045;-94
2023/09/14 00:18:24;;;;;;;15.35;9.38;;;;;;;17.04;100.00;94909.53;4988088;28;20056;-93
2023/09/14 00:20:52;;;;;;;17.92;8.95;;;;;;;16.98;100.00;94911.19;4987617;28;20490;-90
2023/09/14 00:23:18;;;;;;;14.70;8.15;;;;;;;16.81;100.00;94910.88;4988704;28;20033;-93
2023/09/14 00:25:44;;;;;;;14.80;7.47;;;;;;;16.88;100.00;94910.03;4987563;28;20034;-94
2023/09/14 00:28:09;;;;;;;20.33;9.32;;;;;;;16.48;100.00;94914.63;4987894;28;20026;-94
2023/09/14 00:30:34;;;;;;;29.20;12.77;;;;;;;16.35;100.00;94912.84;4987725;28;20061;-91
2023/09/14 00:33:00;;;;;;;36.13;18.20;;;;;;;16.56;100.00;94912.63;4988014;28;20031;-91
2023/09/14 00:35:25;;;;;;;43.15;21.55;;;;;;;16.71;100.00;94912.34;4987745;28;20061;-90
2023/09/14 00:37:51;;;;;;;31.73;15.32;;;;;;;16.53;100.00;94912.19;4987804;28;20518;-91
2023/09/14 00:40:17;;;;;;;28.08;15.02;;;;;;;16.19;100.00;94919.34;4987614;28;20025;-91
2023/09/14 00:42:46;;;;;;;32.58;16.15;;;;;;;16.35;100.00;94918.91;4987456;28;20034;-90
2023/09/14 00:45:16;;;;;;;20.33;12.57;;;;;;;16.32;100.00;94914.09;4987552;28;20602;-90
2023/09/14 00:47:53;;;;;;;20.98;11.57;;;;;;;16.49;100.00;94911.81;4987311;28;20026;-89
2023/09/14 00:50:20;;;;;;;31.45;16.70;;;;;;;15.73;100.00;94916.84;4970197;28;20118;-90
2023/09/14 00:52:53;;;;;;;22.90;16.23;;;;;;;15.90;100.00;94919.81;4970601;28;20031;-92
2023/09/14 00:55:18;;;;;;;30.75;15.68;;;;;;;16.18;100.00;94909.91;4987381;28;20403;-91
2023/09/14 00:57:46;;;;;;;32.17;16.23;;;;;;;15.99;100.00;94910.75;4970362;28;20030;-91
2023/09/14 01:00:12;;;;;;;26.67;15.15;;;;;;;16.03;100.00;94911.16;4987074;28;20070;-92
2023/09/14 01:02:39;;;;;;;23.50;14.18;;;;;;;16.06;100.00;94906.31;4987295;28;20041;-91
2023/09/14 01:05:06;;;;;;;23.58;13.77;;;;;;;16.14;100.00;94900.88;4987153;28;20023;-91
2023/09/14 01:07:31;;;;;;;24.08;12.13;;;;;;;16.05;100.00;94903.94;4991911;28;20046;-92
2023/09/14 01:09:57;;;;;;;25.20;12.80;;;;;;;16.34;100.00;94893.75;4991373;28;20124;-94
2023/09/14 01:12:23;;;;;;;23.80;12.48;;;;;;;16.46;100.00;94890.50;4992342;28;20175;-91
2023/09/14 01:14:54;;;;;;;21.33;11.82;;;;;;;16.49;100.00;94890.91;4991230;28;20034;-94
2023/09/14 01:17:39;;;;;;;22.10;11.30;;;;;;;17.00;100.00;94893.44;4992636;28;20027;-94
2023/09/14 01:20:16;;;;;;;19.08;11.63;;;;;;;16.90;100.00;94895.72;4957439;28;20069;-89
2023/09/14 01:22:50;;;;;;;22.98;11.30;;;;;;;16.74;100.00;94893.59;4973951;28;20026;-89
2023/09/14 01:25:38;;;;;;;26.77;13.43;;;;;;;16.64;100.00;94894.06;4990496;28;20069;-89
2023/09/14 01:28:11;;;;;;;32.42;13.85;;;;;;;16.65;100.00;94884.41;4991371;28;20112;-90
2023/09/14 01:30:37;;;;;;;28.67;13.52;;;;;;;16.81;100.00;94879.47;4990811;28;20091;-90
2023/09/14 01:33:07;;;;;;;27.77;14.98;;;;;;;16.78;100.00;94879.09;4990774;28;20109;-90
2023/09/14 01:35:35;;;;;;;24.70;13.32;;;;;;;16.73;100.00;94881.53;4990716;28;20528;-91
2023/09/14 01:38:01;;;;;;;17.73;10.40;;;;;;;16.62;100.00;94882.22;4990943;28;20033;-90
2023/09/14 01:40:26;;;;;;;16.65;8.95;;;;;;;16.45;100.00;94887.09;4991167;28;20034;-93
2023/09/14 01:42:53;;;;;;;13.57;8.85;;;;;;;16.14;100.00;94887.00;4973833;28;20034;-89
2023/09/14 01:45:19;;;;;;;15.50;8.52;;;;;;;15.92;100.00;94894.31;4973322;28;20062;-93
2023/09/14 01:47:46;;;;;;;17.75;8.00;;;;;;;15.85;100.00;94893.53;4990592;28;20179;-92
2023/09/14 01:50:12;;;;;;;19.38;8.38;;;;;;;15.92;100.00;94893.50;4991242;28;20034;-90
2023/09/14 01:52:37;;;;;;;19.73;8.18;;;;;;;15.91;100.00;94895.31;4991027;28;20018;-92
2023/09/14 01:55:03;;;;;;;15.60;8.60;;;;;;;15.90;100.00;94898.94;4973309;28;20411;-93
2023/09/14 01:57:28;;;;;;;12.65;8.30;;;;;;;15.76;100.00;94898.13;4990616;28;20019;-91
2023/09/14 01:59:54;;;;;;;8.73;7.78;;;;;;;15.73;100.00;94901.16;4990598;28;20041;-93
2023/09/14 02:02:23;;;;;;;14.32;7.97;;;;;;;15.70;100.00;94903.41;4990282;28;20041;-94
2023/09/14 02:04:48;;;;;;;17.13;8.45;;;;;;;15.72;100.00;94904.81;4990172;28;20030;-92
2023/09/14 02:07:14;;;;;;;15.13;7.53;;;;;;;15.77;100.00;94904.16;4990579;28;20041;-91
2023/09/14 02:09:39;;;;;;;10.27;7.93;;;;;;;15.74;100.00;94909.81;4990435;28;20030;-90
2023/09/14 02:12:05;;;;;;;12.10;7.13;;;;;;;15.72;100.00;94906.59;4990347;28;20480;-90
2023/09/14 02:14:30;;;;;;;11.75;7.00;;;;;;;15.76;100.00;94899.97;4989509;28;20065;-93
2023/09/14 02:16:55;;;;;;;13.63;7.47;;;;;;;15.64;100.00;94898.97;4990259;28;20040;-92
2023/09/14 02:19:21;;;;;;;17.70;8.57;;;;;;;15.61;100.00;94901.97;4990165;28;20531;-92
2023/09/14 02:21:46;;;;;;;15.38;9.10;;;;;;;15.42;100.00;94918.44;4990567;28;20480;-92
2023/09/14 02:24:12;;;;;;;14.68;7.65;;;;;;;15.52;100.00;94904.00;4990114;28;20077;-93
2023/09/14 02:26:37;;;;;;;17.80;8.38;;;;;;;15.22;100.00;94916.63;4989839;28;20027;-95
2023/09/14 02:29:03;;;;;;;18.13;8.77;;;;;;;15.23;100.00;94917.44;4990416;28;20081;-93
2023/09/14 02:31:28;;;;;;;11.35;8.40;;;;;;;15.23;100.00;94918.22;4989787;28;20026;-93
2023/09/14 02:33:54;;;;;;;15.77;8.38;;;;;;;15.23;100.00;94915.63;4989937;28;20031;-92
2023/09/14 02:36:19;;;;;;;15.27;8.63;;;;;;;15.21;100.00;94914.22;4989534;28;20038;-92
2023/09/14 02:38:45;;;;;;;16.52;7.97;;;;;;;15.16;100.00;94924.44;4990956;28;20042;-93
2023/09/14 02:41:11;;;;;;;12.32;8.45;;;;;;;15.09;100.00;94921.81;4989512;28;20041;-92
2023/09/14 02:43:36;;;;;;;11.13;7.78;;;;;;;15.11;100.00;94921.63;4989823;28;20030;-93
2023/09/14 02:46:02;;;;;;;17.02;7.88;;;;;;;15.27;100.00;94918.63;4989818;28;20404;-93
2023/09/14 02:48:27;;;;;;;13.90;7.35;;;;;;;15.30;100.00;94915.63;4989375;28;20102;-92
2023/09/14 02:50:52;;;;;;;14.52;7.20;;;;;;;15.42;100.00;94914.03;4989743;28;20032;-92
2023/09/14 02:53:18;;;;;;;15.20;7.55;;;;;;;15.31;100.00;94904.97;4989576;28;20022;-94
2023/09/14 02:55:43;;;;;;;12.00;6.68;;;;;;;15.25;100.00;94905.78;4989340;28;20061;-91
2023/09/14 02:58:09;;;;;;;13.60;7.32;;;;;;;15.27;100.00;94911.63;4989561;28;20039;-93
2023/09/14 03:00:37;;;;;;;14.25;7.50;;;;;;;15.30;100.00;94907.81;4989146;28;20045;-93
2023/09/14 03:03:02;;;;;;;17.38;7.28;;;;;;;15.28;100.00;94913.22;4989690;28;20073;-91
2023/09/14 03:05:28;;;;;;;23.00;7.00;;;;;;;15.49;100.00;94914.03;4988975;28;20467;-91
2023/09/14 03:07:53;;;;;;;14.95;6.78;;;;;;;15.29;100.00;94914.81;4989707;28;20488;-91
2023/09/14 03:10:19;;;;;;;15.65;7.68;;;;;;;15.26;100.00;94924.84;4989061;28;20105;-91
2023/09/14 03:12:44;;;;;;;16.55;6.88;;;;;;;15.19;100.00;94927.47;4989320;28;20022;-93
2023/09/14 03:15:10;;;;;;;17.20;7.45;;;;;;;15.07;100.00;94923.84;4992897;28;20049;-92
2023/09/14 03:17:35;;;;;;;18.30;7.70;;;;;;;15.06;100.00;94919.63;4989300;28;20069;-94
2023/09/14 03:20:00;;;;;;;10.02;7.97;;;;;;;15.01;100.00;94931.66;4989288;28;20026;-92
2023/09/14 03:22:26;;;;;;;19.20;8.15;;;;;;;15.05;100.00;94935.47;4991155;28;20030;-91
2023/09/14 03:24:51;;;;;;;17.10;8.95;;;;;;;15.14;100.00;94931.69;4988701;28;20105;-92
2023/09/14 03:27:17;;;;;;;20.73;9.68;;;;;;;15.26;100.00;94935.28;4988877;28;20044;-91
2023/09/14 03:29:42;;;;;;;22.00;8.88;;;;;;;15.28;100.00;94931.47;4988028;28;20030;-91
2023/09/14 03:32:08;;;;;;;17.10;8.45;;;;;;;15.32;100.00;94935.31;4989110;28;20570;-91
2023/09/14 03:34:33;;;;;;;20.25;9.27;;;;;;;15.41;100.00;94940.34;4988408;28;20534;-89
2023/09/14 03:36:59;;;;;;;27.90;9.40;;;;;;;15.52;100.00;94926.69;4989126;28;20033;-91
2023/09/14 03:39:24;;;;;;;17.70;9.93;;;;;;;15.42;100.00;94924.47;4988063;28;20405;-92
2023/09/14 03:41:49;;;;;;;30.30;11.35;;;;;;;15.42;100.00;94921.84;4988545;28;20432;-91
2023/09/14 03:44:16;;;;;;;21.48;11.27;;;;;;;15.47;100.00;94922.06;4988654;28;20018;-90
2023/09/14 03:46:41;;;;;;;18.42;11.20;;;;;;;15.32;100.00;94922.25;4988771;28;20023;-91
2023/09/14 03:49:07;;;;;;;24.00;10.95;;;;;;;15.24;100.00;94922.47;4988323;28;20546;-91
2023/09/14 03:51:33;;;;;;;20.83;10.55;;;;;;;15.43;100.00;94933.91;4988596;28;20081;-91
2023/09/14 03:53:58;;;;;;;36.35;12.55;;;;;;;15.53;100.00;94930.94;4988303;28;20481;-90
2023/09/14 03:56:24;;;;;;;35.00;10.88;;;;;;;15.43;100.00;94931.28;4988258;28;20038;-91
2023/09/14 03:58:49;;;;;;;37.00;11.23;;;;;;;15.44;100.00;94932.91;4988141;28;20022;-91
2023/09/14 04:01:15;;;;;;;29.67;11.13;;;;;;;15.51;100.00;94935.56;4971020;28;20137;-90
2023/09/14 04:03:40;;;;;;;32.10;12.23;;;;;;;15.53;100.00;94941.38;4988531;28;20031;-90
2023/09/14 04:06:06;;;;;;;26.58;9.88;;;;;;;15.34;100.00;94937.72;4988230;28;20034;-92
2023/09/14 04:08:31;;;;;;;18.45;9.32;;;;;;;15.27;100.00;94936.91;4988495;28;20093;-91
2023/09/14 04:11:00;;;;;;;18.63;9.27;;;;;;;15.21;100.00;94935.91;4987980;28;20027;-91
2023/09/14 04:13:34;;;;;;;17.30;9.82;;;;;;;15.26;100.00;94927.47;4988150;28;20022;-91
2023/09/14 04:16:04;;;;;;;21.70;10.40;;;;;;;15.47;100.00;94931.69;4987899;28;20034;-92
2023/09/14 04:18:34;;;;;;;23.70;10.95;;;;;;;15.47;100.00;94927.28;4988059;28;20038;-91
2023/09/14 04:21:00;;;;;;;30.42;12.23;;;;;;;15.44;100.00;94934.72;4988058;28;20420;-91
2023/09/14 04:23:26;;;;;;;26.85;12.13;;;;;;;15.57;100.00;94930.31;4987700;28;20018;-91
2023/09/14 04:25:51;;;;;;;30.38;12.90;;;;;;;15.66;100.00;94931.72;4987425;28;20030;-91
2023/09/14 04:28:18;;;;;;;18.70;10.27;;;;;;;15.42;100.00;94944.53;4988066;28;20109;-93
2023/09/14 04:30:45;;;;;;;21.75;9.10;;;;;;;15.35;100.00;94943.75;4987950;28;20034;-91
2023/09/14 04:33:12;;;;;;;20.92;7.95;;;;;;;15.28;100.00;94944.53;4988099;28;20068;-95
2023/09/14 04:35:37;;;;;;;14.07;7.40;;;;;;;15.31;100.00;94948.56;4987316;28;20035;-93
2023/09/14 04:38:03;;;;;;;22.33;6.82;;;;;;;15.34;100.00;94942.94;4987536;28;20030;-92
2023/09/14 04:40:28;;;;;;;17.35;8.70;;;;;;;15.47;100.00;94947.38;4969916;28;20030;-92
2023/09/14 04:42:54;;;;;;;15.73;7.32;;;;;;;15.65;100.00;94945.78;4987908;28;20028;-92
2023/09/14 04:45:19;;;;;;;16.73;6.60;;;;;;;15.74;100.00;94941.13;4987209;28;20061;-91
2023/09/14 04:47:45;;;;;;;83.65;12.32;;;;;;;15.96;100.00;94945.13;4987633;28;20030;-91
2023/09/14 04:50:10;;;;;;;20.10;7.20;;;;;;;16.11;100.00;94942.31;4987535;28;20027;-91
2023/09/14 04:52:36;;;;;;;19.10;8.15;;;;;;;16.21;100.00;94946.06;4987248;28;20069;-91
2023/09/14 04:55:01;;;;;;;16.27;6.53;;;;;;;16.13;100.00;94943.69;4987591;28;20034;-90
2023/09/14 04:57:26;;;;;;;21.40;7.45;;;;;;;16.22;100.00;94944.25;4987754;28;20141;-89
2023/09/14 04:59:52;;;;;;;21.52;7.97;;;;;;;16.18;100.00;94950.94;4986708;28;20037;-89
2023/09/14 05:02:17;;;;;;;16.75;7.32;;;;;;;16.12;100.00;94944.69;4987278;28;20034;-90
2023/09/14 05:04:42;;;;;;;19.27;6.53;;;;;;;16.28;100.00;94939.03;4987396;28;20496;-91
2023/09/14 05:07:08;;;;;;;14.80;6.72;;;;;;;16.65;100.00;94940.13;4987044;28;20033;-90
2023/09/14 05:09:33;;;;;;;20.50;8.27;;;;;;;17.64;100.00;94942.16;4986985;28;20030;-90
2023/09/14 05:11:59;;;;;;;23.50;8.98;;;;;;;17.78;100.00;94946.28;4987197;28;20022;-89
2023/09/14 05:14:24;;;;;;;20.80;10.80;;;;;;;17.21;100.00;94950.69;4986574;28;20035;-89
2023/09/14 05:16:49;;;;;;;23.67;10.68;;;;;;;18.02;100.00;94955.91;4987508;28;20395;-88
2023/09/14 05:19:15;;;;;;;25.88;12.88;;;;;;;18.04;100.00;94953.09;4986463;28;20042;-88
2023/09/14 05:21:40;;;;;;;21.40;11.30;;;;;;;18.51;100.00;94944.53;4986850;28;20598;-89
2023/09/14 05:24:06;;;;;;;26.25;10.75;;;;;;;18.33;100.00;94949.75;4986937;28;20035;-90
2023/09/14 05:26:31;;;;;;;18.63;11.32;;;;;;;18.85;99.28;94953.59;4987546;28;20384;-88
2023/09/14 05:28:58;;;;;;;21.98;12.55;;;;;;;19.88;92.60;94947.03;4986359;28;20027;-86
2023/09/14 05:31:23;;;;;;;14.55;7.60;;;;;;;19.48;89.58;94946.09;4986239;28;20542;-88
2023/09/14 05:33:49;;;;;;;21.90;9.35;;;;;;;20.94;85.44;94940.59;4986934;28;20030;-86
2023/09/14 05:36:14;;;;;;;16.33;7.63;;;;;;;21.22;79.61;94943.28;4985956;28;20057;-86
2023/09/14 05:38:39;;;;;;;17.85;7.30;;;;;;;21.88;77.72;94944.38;4986451;28;20105;-85
2023/09/14 05:41:06;;;;;;;16.27;6.55;;;;;;;22.40;74.91;94943.03;4986165;28;20022;-86
2023/09/14 05:43:31;;;;;;;15.13;6.75;;;;;;;21.68;76.82;94936.13;4986842;28;20031;-86
2023/09/14 05:45:57;;;;;;;13.35;6.15;;;;;;;21.40;78.32;94934.34;4985860;28;20177;-86
2023/09/14 05:48:22;;;;;;;17.73;6.72;;;;;;;20.12;84.93;94942.59;4986456;28;20022;-88
2023/09/14 05:50:47;;;;;;;12.00;6.80;;;;;;;20.44;83.26;94943.03;4986555;28;20034;-86
2023/09/14 05:53:13;;;;;;;12.55;5.80;;;;;;;20.37;85.15;94932.66;4989432;28;20049;-86
2023/09/14 05:55:38;;;;;;;13.50;7.03;;;;;;;20.59;85.87;94937.28;4989843;28;20033;-86
2023/09/14 05:58:04;;;;;;;15.45;6.30;;;;;;;20.91;82.96;94926.06;4989757;28;20428;-87
2023/09/14 06:00:29;;;;;;;17.95;6.45;;;;;;;20.78;83.52;94933.44;4972209;28;20087;-87
2023/09/14 06:02:55;;;;;;;12.38;6.05;;;;;;;20.40;85.73;94944.53;4989853;28;20022;-86
2023/09/14 06:05:20;;;;;;;14.43;7.35;;;;;;;20.89;84.78;94946.59;4989791;28;20407;-87
2023/09/14 06:07:45;;;;;;;16.95;6.63;;;;;;;21.43;83.51;94942.59;4989313;28;20468;-86
2023/09/14 06:10:12;;;;;;;17.77;6.53;;;;;;;24.12;70.78;94945.63;4989960;28;20027;-86
2023/09/14 06:12:38;;;;;;;17.38;6.90;;;;;;;24.01;66.71;94940.50;4989530;28;20085;-86
2023/09/14 06:15:03;;;;;;;24.90;7.70;;;;;;;24.77;64.16;94940.94;4989257;28;20069;-86
2023/09/14 06:17:29;;;;;;;13.20;5.63;;;;;;;26.19;57.67;94940.19;4989161;28;20022;-86
2023/09/14 06:19:54;;;;;;;19.70;6.32;;;;;;;26.40;55.21;94939.06;4989437;28;20034;-87
2023/09/14 06:22:20;;;;;;;16.05;6.43;;;;;;;26.56;55.71;94939.81;4989679;28;20038;-86
2023/09/14 06:24:45;;;;;;;16.27;5.97;;;;;;;27.11;53.83;94944.94;4989054;28;20030;-86
2023/09/14 06:27:11;;;;;;;12.23;5.40;;;;;;;27.64;51.06;94945.19;4989205;28;20070;-86
2023/09/14 06:29:36;;;;;;;13.57;5.40;;;;;;;27.30;50.58;94936.31;4989096;28;20117;-87
2023/09/14 06:32:03;;;;;;;16.60;5.75;;;;;;;27.00;51.40;94934.66;4989379;28;20094;-86
2023/09/14 06:34:28;;;;;;;13.80;5.40;;;;;;;27.05;51.36;94937.25;4989038;28;20053;-86
2023/09/14 06:36:53;;;;;;;9.70;4.93;;;;;;;25.89;53.26;94932.19;4989724;28;20053;-87
2023/09/14 06:39:19;;;;;;;17.48;5.15;;;;;;;25.95;52.90;94934.59;4989181;28;20038;-86
2023/09/14 06:41:44;;;;;;;12.13;5.70;;;;;;;26.29;52.38;94940.16;4989269;28;20089;-86
2023/09/14 06:44:10;;;;;;;13.02;5.18;;;;;;;26.38;53.46;94938.53;4988958;28;20036;-87
2023/09/14 06:46:35;;;;;;;10.20;4.53;;;;;;;26.24;55.12;94937.50;4988642;28;20034;-87
2023/09/14 06:49:00;;;;;;;19.95;5.32;;;;;;;26.11;54.47;94938.00;4988730;28;20036;-86
2023/09/14 06:51:26;;;;;;;19.20;4.70;;;;;;;25.93;52.87;94939.38;4988710;28;20045;-85
2023/09/14 06:53:51;;;;;;;14.52;5.18;;;;;;;25.80;53.29;94941.75;4988788;28;20508;-87
2023/09/14 06:56:17;;;;;;;13.02;4.50;;;;;;;26.23;53.20;94951.06;4988864;28;20030;-87
2023/09/14 06:58:42;;;;;;;16.63;4.78;;;;;;;26.21;54.40;94956.63;4989029;28;20022;-86
2023/09/14 07:01:07;;;;;;;19.20;5.00;;;;;;;27.35;51.75;94955.75;4988969;28;20529;-87
2023/09/14 07:03:34;;;;;;;14.57;4.70;;;;;;;28.49;48.88;94957.00;4988031;28;20026;-87
2023/09/14 07:06:00;;;;;;;14.98;4.72;;;;;;;28.30;46.53;94958.00;4988795;28;20084;-87
2023/09/14 07:08:26;;;;;;;15.50;4.85;;;;;;;29.45;44.69;94953.22;4988564;28;20026;-86
2023/09/14 07:10:53;;;;;;;16.70;4.70;;;;;;;29.95;42.27;94957.03;4988397;28;20142;-87
2023/09/14 07:13:18;;;;;;;14.50;4.70;;;;;;;31.11;40.60;94960.31;4988705;28;20076;-87
2023/09/14 07:15:44;;;;;;;20.00;5.93;;;;;;;31.86;39.86;94971.28;4987866;28;20047;-85
2023/09/14 07:18:26;;;;;;;13.07;5.93;;;;;;;31.59;39.06;94971.38;4988439;28;20188;-87
2023/09/14 07:20:52;;;;;;;14.75;5.88;;;;;;;31.91;38.07;94967.69;4988158;28;20033;-86
2023/09/14 07:23:18;;;;;;;12.32;5.20;;;;;;;32.23;36.98;94972.84;4989121;28;20022;-86
2023/09/14 07:25:43;;;;;;;15.20;4.97;;;;;;;32.85;36.84;94967.47;4987805;28;20057;-87
2023/09/14 07:28:09;;;;;;;9.73;4.50;;;;;;;34.10;35.72;94950.63;4988380;28;20030;-89
2023/09/14 07:30:35;;;;;;;14.68;4.78;;;;;;;34.35;34.48;94955.19;4988236;28;20030;-87
2023/09/14 07:33:00;;;;;;;9.27;5.03;;;;;;;33.67;35.07;94961.41;4988427;28;20038;-87
2023/09/14 07:35:26;;;;;;;16.65;5.30;;;;;;;32.92;35.53;94958.97;4988224;28;20084;-87
2023/09/14 07:37:51;;;;;;;20.60;5.75;;;;;;;31.14;38.10;94962.41;4988377;28;20550;-87
2023/09/14 07:40:17;;;;;;;10.57;5.28;;;;;;;28.90;43.14;94956.59;4987872;28;20038;-87
2023/09/14 07:42:42;;;;;;;14.10;5.57;;;;;;;28.56;46.13;94960.13;4988028;28;20081;-88
2023/09/14 07:45:08;;;;;;;15.13;5.45;;;;;;;27.90;47.35;94967.13;4987865;28;20026;-86
2023/09/14 07:47:33;;;;;;;14.00;5.38;;;;;;;27.93;47.34;94963.91;4988617;28;20046;-88
2023/09/14 07:49:59;;;;;;;8.00;5.50;;;;;;;27.79;48.46;94970.91;4987841;28;20030;-87
2023/09/14 07:52:24;;;;;;;5.88;4.45;;;;;;;28.02;48.13;94968.34;4988649;28;20022;-87
2023/09/14 07:54:50;;;;;;;8.93;4.57;;;;;;;27.79;48.06;94968.25;4987316;28;20034;-88
2023/09/14 07:57:15;;;;;;;13.70;5.70;;;;;;;27.98;49.09;94969.16;4988315;28;20234;-88
2023/09/14 07:59:41;;;;;;;11.45;5.07;;;;;;;27.90;48.26;94967.13;4987643;28;20042;-88
2023/09/14 08:02:07;;;;;;;10.02;5.07;;;;;;;28.16;47.55;94968.50;4988751;28;20509;-91
2023/09/14 08:04:33;;;;;;;8.20;4.85;;;;;;;28.53;46.24;94967.91;4988335;28;20030;-87
2023/09/14 08:06:58;;;;;;;8.43;4.97;;;;;;;28.29;45.42;94964.41;4988072;28;20022;-89
2023/09/14 08:09:24;;;;;;;13.75;4.97;;;;;;;28.45;45.72;94960.53;4987799;28;20468;-93
2023/09/14 08:11:50;;;;;;;10.52;4.65;;;;;;;28.47;47.92;94953.03;4987792;28;20037;-87
2023/09/14 08:14:16;;;;;;;13.15;4.65;;;;;;;28.13;46.06;94951.22;4986756;28;20461;-87
2023/09/14 08:16:42;;;;;;;9.15;4.50;;;;;;;27.48;45.59;94943.72;4988015;28;20034;-87
2023/09/14 08:19:07;;;;;;;7.88;4.35;;;;;;;27.46;47.44;94954.63;4987487;28;20401;-90
2023/09/14 08:21:33;;;;;;;10.55;4.82;;;;;;;28.08;46.17;94939.81;4988085;28;20113;-89
2023/09/14 08:23:58;;;;;;;11.18;4.82;;;;;;;28.60;45.89;94958.50;4988738;28;20034;-86
2023/09/14 08:26:23;;;;;;;10.02;4.65;;;;;;;28.32;45.41;94955.84;4987328;28;20026;-90
2023/09/14 08:28:49;;;;;;;10.60;4.90;;;;;;;28.95;45.57;94953.84;4987247;28;20018;-88
2023/09/14 08:31:14;;;;;;;15.57;5.25;;;;;;;29.28;44.82;94948.38;4988137;28;20037;-84
2023/09/14 08:33:40;;;;;;;10.05;4.80;;;;;;;29.26;43.82;94939.06;4987619;28;20498;-87
2023/09/14 08:36:06;;;;;;;12.32;4.72;;;;;;;28.67;44.08;94944.84;4987423;28;20026;-88
2023/09/14 08:38:31;;;;;;;15.52;5.07;;;;;;;29.01;45.08;94936.69;4987319;28;20508;-89
2023/09/14 08:41:00;;;;;;;11.60;5.00;;;;;;;29.38;44.17;94942.09;4987349;28;20022;-90
2023/09/14 08:43:26;;;;;;;10.30;4.93;;;;;;;29.11;42.82;94940.03;4987094;28;20096;-91
2023/09/14 08:45:53;;;;;;;12.23;5.10;;;;;;;29.57;43.41;94940.22;4987780;28;20026;-89
2023/09/14 08:48:22;;;;;;;14.27;5.05;;;;;;;29.74;42.78;94929.81;4987496;28;20019;-88
2023/09/14 08:50:48;;;;;;;11.10;5.28;;;;;;;29.74;42.76;94929.81;4970622;28;20356;-91
2023/09/14 08:53:14;;;;;;;12.63;5.03;;;;;;;29.59;44.05;94929.25;4987683;28;20503;-88
2023/09/14 08:55:40;;;;;;;12.48;5.85;;;;;;;29.36;42.63;94933.59;4987107;28;20049;-86
2023/09/14 08:58:06;;;;;;;9.73;4.82;;;;;;;29.27;44.58;94929.97;4986921;28;20469;-87
2023/09/14 09:00:31;;;;;;;13.07;5.15;;;;;;;29.08;44.04;94931.81;4969585;28;20031;-92
2023/09/14 09:02:57;;;;;;;12.70;4.55;;;;;;;29.33;43.69;94930.69;4987350;28;20467;-88
2023/09/14 09:05:24;;;;;;;11.70;5.05;;;;;;;29.58;42.88;94920.44;4986716;28;20423;-88
2023/09/14 09:07:51;;;;;;;13.27;4.97;;;;;;;29.95;43.17;94919.63;4970330;28;20093;-89
2023/09/14 09:10:21;;;;;;;16.10;4.60;;;;;;;30.09;42.80;94919.66;4987004;28;20026;-89
2023/09/14 09:12:49;;;;;;;12.73;4.60;;;;;;;29.81;41.93;94906.19;4969933;28;20033;-87
2023/09/14 09:15:15;;;;;;;18.55;4.43;;;;;;;30.05;42.47;94916.78;4986696;28;20046;-90
2023/09/14 09:17:41;;;;;;;7.60;4.15;;;;;;;29.72;43.04;94912.50;4987586;28;20077;-87
2023/09/14 09:20:14;;;;;;;15.05;5.53;;;;;;;29.49;42.51;94906.16;4987061;28;20400;-89
2023/09/14 09:22:45;;;;;;;10.82;4.65;;;;;;;29.93;43.23;94895.06;4987027;28;20034;-90
2023/09/14 09:25:12;;;;;;;16.35;4.97;;;;;;;29.86;43.25;94896.53;4970249;28;20101;-89
2023/09/14 09:27:40;;;;;;;9.15;4.55;;;;;;;29.71;42.34;94892.19;4990104;28;20473;-90
2023/09/14 09:30:08;;;;;;;8.05;4.28;;;;;;;29.64;41.97;94892.56;4990231;28;20124;-89
2023/09/14 09:32:34;;;;;;;;;;;;;;;30.09;42.67;94882.22;4992042;28;20050;-91
2023/09/14 09:35:20;;;;;;;13.25;4.60;;;;;;;30.49;41.68;94884.19;4990929;28;20089;-91
2023/09/14 09:37:47;;;;;;;12.15;4.93;;;;;;;29.77;41.42;94880.34;4991170;28;20034;-91
2023/09/14 09:40:20;;;;;;;11.55;4.72;;;;;;;29.93;41.31;94880.91;4990992;28;20030;-92
2023/09/14 09:42:46;;;;;;;10.48;4.65;;;;;;;30.27;41.85;94874.16;4990977;28;20430;-89
2023/09/14 09:45:15;;;;;;;12.65;4.68;;;;;;;30.31;41.40;94871.69;4991351;28;20488;-89
2023/09/14 09:47:41;;;;;;;10.23;4.10;;;;;;;30.39;40.34;94860.28;4991200;28;20094;-90
2023/09/14 09:50:09;;;;;;;10.07;4.57;;;;;;;30.28;40.98;94869.56;4991238;28;20194;-94
2023/09/14 09:52:35;;;;;;;11.93;5.18;;;;;;;30.05;40.47;94867.88;4991758;28;20134;-92
2023/09/14 09:55:01;;;;;;;16.63;5.20;;;;;;;30.48;40.99;94871.91;4991442;28;20030;-90
2023/09/14 09:57:33;;;;;;;12.60;4.78;;;;;;;30.60;39.76;94860.72;4991754;28;20026;-90
2023/09/14 09:59:58;;;;;;;10.73;5.45;;;;;;;30.57;39.59;94862.09;4991287;28;20472;-89
2023/09/14 10:02:31;;;;;;;21.23;15.85;;;;;;;30.48;41.24;94853.19;4990905;28;20088;-91
2023/09/14 10:04:58;;;;;;;14.43;7.13;;;;;;;30.69;41.33;94859.72;4991386;28;20037;-96
2023/09/14 10:07:24;;;;;;;6.68;4.47;;;;;;;30.44;40.81;94854.84;4990835;28;20030;-91
2023/09/14 10:09:55;;;;;;;14.43;4.90;;;;;;;30.36;39.92;94855.53;4990075;28;20109;-92
2023/09/14 10:12:24;;;;;;;11.55;5.05;;;;;;;30.26;40.84;94855.72;4991796;28;20114;-90
2023/09/14 10:14:54;;;;;;;7.72;5.00;;;;;;;30.25;41.15;94849.59;4990099;28;20054;-91
2023/09/14 10:17:21;;;;;;;8.95;4.90;;;;;;;30.17;40.19;94847.59;4973102;28;20427;-90
2023/09/14 10:19:47;;;;;;;9.88;4.57;;;;;;;30.25;41.46;94838.09;4991367;28;20044;-91
2023/09/14 10:22:14;;;;;;;11.55;4.72;;;;;;;30.26;41.09;94850.38;4990124;28;20139;-90
2023/09/14 10:24:41;;;;;;;18.63;5.43;;;;;;;30.15;39.96;94846.31;4990522;28;20022;-88
2023/09/14 10:27:07;;;;;;;11.80;4.60;;;;;;;30.46;41.35;94851.91;4991072;28;20030;-89
2023/09/14 10:29:35;;;;;;;8.93;4.68;;;;;;;30.76;40.18;94854.75;4990404;28;20084;-95
2023/09/14 10:32:01;;;;;;;11.73;4.60;;;;;;;30.88;40.36;94843.53;4973742;28;20117;-93
2023/09/14 10:34:29;;;;;;;5.75;4.05;;;;;;;31.20;39.76;94843.38;4972997;28;20058;-92
2023/09/14 10:36:54;;;;;;;;;;;;;;;31.10;39.29;94848.16;4990775;28;20084;-89
2023/09/14 10:39:23;;;;;;;8.40;4.80;;;;;;;30.62;39.09;94843.28;4975138;28;20346;-96
2023/09/14 10:41:48;;;;;;;9.55;4.35;;;;;;;30.92;39.25;94841.81;4991232;28;20411;-94
2023/09/14 10:44:14;;;;;;;11.45;4.68;;;;;;;30.53;39.12;94834.38;4990628;28;20028;-90
2023/09/14 10:46:42;;;;;;;11.52;4.35;;;;;;;30.46;38.77;94831.31;4992776;28;20022;-93
2023/09/14 10:49:08;;;;;;;9.02;4.57;;;;;;;30.60;38.82;94836.66;4992512;28;20113;-90
2023/09/14 10:51:33;;;;;;;10.32;4.97;;;;;;;30.76;39.90;94836.00;4973964;28;20465;-94
2023/09/14 10:54:00;;;;;;;18.45;8.95;;;;;;;30.77;37.22;94816.19;4989310;28;20027;-85
2023/09/14 10:56:33;;;;;;;17.05;6.82;;;;;;;30.68;38.05;94826.03;4989679;28;20033;-86
2023/09/14 10:58:59;;;;;;;15.90;9.20;;;;;;;31.04;37.66;94825.28;4989939;28;20389;-90
2023/09/14 11:01:28;;;;;;;8.57;5.07;;;;;;;31.13;38.19;94815.44;4973407;28;20115;-91
2023/09/14 11:04:11;;;;;;;8.55;4.78;;;;;;;31.03;37.43;94815.66;4972768;28;20064;-93
2023/09/14 11:06:46;;;;;;;7.65;4.57;;;;;;;31.12;38.10;94819.19;4991312;28;20109;-92
2023/09/14 11:09:15;;;;;;;12.30;4.68;;;;;;;31.09;37.33;94809.09;4991022;28;20057;-92
2023/09/14 11:11:45;;;;;;;10.05;4.72;;;;;;;30.95;36.93;94803.81;4990919;28;20037;-92
2023/09/14 11:14:13;;;;;;;15.07;5.57;;;;;;;30.83;37.00;94806.97;4974729;28;20050;-94
2023/09/14 11:16:44;;;;;;;11.05;5.18;;;;;;;30.73;36.36;94801.03;4989756;28;20026;-90
2023/09/14 11:19:10;;;;;;;9.63;5.20;;;;;;;30.77;37.49;94797.47;4989646;28;20105;-93